sensor_id;sensor_type;location;lat;lon;timestamp;temperature;humidity
50955;DHT22;36966;48.064;-0.792;2022-10-15T00:00:05;20.10;68.30
50955;DHT22;36966;48.064;-0.792;2022-10-15T00:02:25;20.20;68.60
50955;DHT22;36966;48.064;-0.792;2022-10-15T00:04:44;20.20;68.60
50955;DHT22;36966;48.064;-0.792;2022-10-15T00:07:03;20.10;68.60
50955;DHT22;36966;48.064;-0.792;2022-10-15T00:09:23;20.10;68.60
50955;DHT22;36966;48.064;-0.792;2022-10-15T00:11:42;20.20;68.70
50955;DHT22;36966;48.064;-0.792;2022-10-15T00:14:01;20.20;68.70
50955;DHT22;36966;48.064;-0.792;2022-10-15T00:16:24;20.20;68.70
50955;DHT22;36966;48.064;-0.792;2022-10-15T00:18:44;20.20;68.70
50955;DHT22;36966;48.064;-0.792;2022-10-15T00:21:06;20.20;68.80
50955;DHT22;36966;48.064;-0.792;2022-10-15T00:23:25;20.20;68.70
50955;DHT22;36966;48.064;-0.792;2022-10-15T00:25:44;20.20;68.90
50955;DHT22;36966;48.064;-0.792;2022-10-15T00:28:04;20.20;68.90
50955;DHT22;36966;48.064;-0.792;2022-10-15T00:30:23;20.20;68.60
50955;DHT22;36966;48.064;-0.792;2022-10-15T00:32:42;20.20;68.80
50955;DHT22;36966;48.064;-0.792;2022-10-15T00:35:01;20.10;68.80
50955;DHT22;36966;48.064;-0.792;2022-10-15T00:37:21;20.20;68.70
50955;DHT22;36966;48.064;-0.792;2022-10-15T00:39:41;20.20;68.70
50955;DHT22;36966;48.064;-0.792;2022-10-15T00:42:00;20.20;68.70
50955;DHT22;36966;48.064;-0.792;2022-10-15T00:46:42;20.20;68.70
50955;DHT22;36966;48.064;-0.792;2022-10-15T00:49:54;20.10;69.10
50955;DHT22;36966;48.064;-0.792;2022-10-15T00:52:13;20.10;69.00
50955;DHT22;36966;48.064;-0.792;2022-10-15T00:54:38;20.10;69.00
50955;DHT22;36966;48.064;-0.792;2022-10-15T00:56:58;20.10;68.90
50955;DHT22;36966;48.064;-0.792;2022-10-15T00:59:22;20.10;69.00
50955;DHT22;36966;48.064;-0.792;2022-10-15T01:01:43;20.10;69.10
50955;DHT22;36966;48.064;-0.792;2022-10-15T01:04:03;20.20;69.20
50955;DHT22;36966;48.064;-0.792;2022-10-15T01:06:23;20.20;69.00
50955;DHT22;36966;48.064;-0.792;2022-10-15T01:08:44;20.10;68.80
50955;DHT22;36966;48.064;-0.792;2022-10-15T01:14:14;20.20;68.90
50955;DHT22;36966;48.064;-0.792;2022-10-15T01:17:08;20.10;68.90
50955;DHT22;36966;48.064;-0.792;2022-10-15T01:27:37;20.20;69.20
50955;DHT22;36966;48.064;-0.792;2022-10-15T01:35:32;20.10;69.10
50955;DHT22;36966;48.064;-0.792;2022-10-15T01:40:44;20.10;69.40
50955;DHT22;36966;48.064;-0.792;2022-10-15T01:43:11;20.10;69.30
50955;DHT22;36966;48.064;-0.792;2022-10-15T01:45:45;20.20;69.30
50955;DHT22;36966;48.064;-0.792;2022-10-15T01:48:11;20.10;69.20
50955;DHT22;36966;48.064;-0.792;2022-10-15T01:50:30;20.10;69.20
50955;DHT22;36966;48.064;-0.792;2022-10-15T01:52:51;20.20;69.20
50955;DHT22;36966;48.064;-0.792;2022-10-15T01:55:14;20.20;69.10
50955;DHT22;36966;48.064;-0.792;2022-10-15T01:57:35;20.20;69.20
50955;DHT22;36966;48.064;-0.792;2022-10-15T01:59:57;20.20;69.30
50955;DHT22;36966;48.064;-0.792;2022-10-15T02:02:16;20.10;69.30
50955;DHT22;36966;48.064;-0.792;2022-10-15T02:04:36;20.10;69.70
50955;DHT22;36966;48.064;-0.792;2022-10-15T02:11:53;20.10;69.50
50955;DHT22;36966;48.064;-0.792;2022-10-15T02:14:15;20.20;69.60
50955;DHT22;36966;48.064;-0.792;2022-10-15T02:17:08;20.20;69.40
50955;DHT22;36966;48.064;-0.792;2022-10-15T02:19:47;20.10;69.40
50955;DHT22;36966;48.064;-0.792;2022-10-15T02:22:13;20.10;69.40
50955;DHT22;36966;48.064;-0.792;2022-10-15T02:24:39;20.10;69.50
50955;DHT22;36966;48.064;-0.792;2022-10-15T02:27:01;20.20;69.40
50955;DHT22;36966;48.064;-0.792;2022-10-15T02:29:23;20.10;69.60
50955;DHT22;36966;48.064;-0.792;2022-10-15T02:31:46;20.10;69.70
50955;DHT22;36966;48.064;-0.792;2022-10-15T02:34:09;20.10;69.70
50955;DHT22;36966;48.064;-0.792;2022-10-15T02:36:31;20.10;69.60
50955;DHT22;36966;48.064;-0.792;2022-10-15T02:38:52;20.10;69.70
50955;DHT22;36966;48.064;-0.792;2022-10-15T02:41:13;20.20;69.60
50955;DHT22;36966;48.064;-0.792;2022-10-15T02:43:33;20.10;69.50
50955;DHT22;36966;48.064;-0.792;2022-10-15T02:45:53;20.10;69.70
50955;DHT22;36966;48.064;-0.792;2022-10-15T02:48:12;20.10;69.40
50955;DHT22;36966;48.064;-0.792;2022-10-15T02:50:31;20.20;69.40
50955;DHT22;36966;48.064;-0.792;2022-10-15T02:52:51;20.10;69.30
50955;DHT22;36966;48.064;-0.792;2022-10-15T02:55:10;20.10;69.50
50955;DHT22;36966;48.064;-0.792;2022-10-15T02:57:29;20.20;69.30
50955;DHT22;36966;48.064;-0.792;2022-10-15T02:59:48;20.10;69.30
50955;DHT22;36966;48.064;-0.792;2022-10-15T03:02:08;20.10;69.40
50955;DHT22;36966;48.064;-0.792;2022-10-15T03:04:27;20.10;69.40
50955;DHT22;36966;48.064;-0.792;2022-10-15T03:06:46;20.10;69.20
50955;DHT22;36966;48.064;-0.792;2022-10-15T03:09:06;20.10;69.30
50955;DHT22;36966;48.064;-0.792;2022-10-15T03:11:25;20.10;69.20
50955;DHT22;36966;48.064;-0.792;2022-10-15T03:13:44;20.10;69.20
50955;DHT22;36966;48.064;-0.792;2022-10-15T03:16:04;20.10;69.20
50955;DHT22;36966;48.064;-0.792;2022-10-15T03:18:24;20.20;69.20
50955;DHT22;36966;48.064;-0.792;2022-10-15T03:20:44;20.20;69.30
50955;DHT22;36966;48.064;-0.792;2022-10-15T03:23:05;20.10;69.20
50955;DHT22;36966;48.064;-0.792;2022-10-15T03:25:24;20.10;69.30
50955;DHT22;36966;48.064;-0.792;2022-10-15T03:27:43;20.10;69.20
50955;DHT22;36966;48.064;-0.792;2022-10-15T03:30:03;20.10;69.30
50955;DHT22;36966;48.064;-0.792;2022-10-15T03:32:22;20.10;69.20
50955;DHT22;36966;48.064;-0.792;2022-10-15T03:34:42;20.10;69.20
50955;DHT22;36966;48.064;-0.792;2022-10-15T03:37:01;20.10;69.30
50955;DHT22;36966;48.064;-0.792;2022-10-15T03:39:20;20.20;69.10
50955;DHT22;36966;48.064;-0.792;2022-10-15T03:41:40;20.10;69.30
50955;DHT22;36966;48.064;-0.792;2022-10-15T03:44:01;20.10;69.00
50955;DHT22;36966;48.064;-0.792;2022-10-15T03:46:20;20.10;69.00
50955;DHT22;36966;48.064;-0.792;2022-10-15T03:48:39;20.10;69.10
50955;DHT22;36966;48.064;-0.792;2022-10-15T03:50:58;20.10;69.20
50955;DHT22;36966;48.064;-0.792;2022-10-15T03:53:18;20.20;69.30
50955;DHT22;36966;48.064;-0.792;2022-10-15T03:55:37;20.10;69.10
50955;DHT22;36966;48.064;-0.792;2022-10-15T03:57:56;20.10;69.20
50955;DHT22;36966;48.064;-0.792;2022-10-15T04:00:15;20.20;69.20
50955;DHT22;36966;48.064;-0.792;2022-10-15T04:02:35;20.10;69.10
50955;DHT22;36966;48.064;-0.792;2022-10-15T04:04:54;20.10;69.20
50955;DHT22;36966;48.064;-0.792;2022-10-15T04:07:13;20.10;69.00
50955;DHT22;36966;48.064;-0.792;2022-10-15T04:09:33;20.20;68.90
50955;DHT22;36966;48.064;-0.792;2022-10-15T04:11:52;20.10;68.90
50955;DHT22;36966;48.064;-0.792;2022-10-15T04:14:11;20.10;68.80
50955;DHT22;36966;48.064;-0.792;2022-10-15T04:16:31;20.20;68.80
50955;DHT22;36966;48.064;-0.792;2022-10-15T04:18:50;20.20;68.80
50955;DHT22;36966;48.064;-0.792;2022-10-15T04:21:09;20.20;68.70
50955;DHT22;36966;48.064;-0.792;2022-10-15T04:23:29;20.20;68.60
50955;DHT22;36966;48.064;-0.792;2022-10-15T04:25:48;20.20;68.50
50955;DHT22;36966;48.064;-0.792;2022-10-15T04:28:07;20.20;68.70
50955;DHT22;36966;48.064;-0.792;2022-10-15T04:30:27;20.20;68.50
50955;DHT22;36966;48.064;-0.792;2022-10-15T04:32:46;20.20;68.40
50955;DHT22;36966;48.064;-0.792;2022-10-15T04:35:06;20.20;68.40
50955;DHT22;36966;48.064;-0.792;2022-10-15T04:37:25;20.30;68.40
50955;DHT22;36966;48.064;-0.792;2022-10-15T04:39:44;20.30;68.20
50955;DHT22;36966;48.064;-0.792;2022-10-15T04:42:03;20.30;68.20
50955;DHT22;36966;48.064;-0.792;2022-10-15T04:44:22;20.30;68.10
50955;DHT22;36966;48.064;-0.792;2022-10-15T04:46:41;20.30;68.10
50955;DHT22;36966;48.064;-0.792;2022-10-15T04:49:00;20.30;68.00
50955;DHT22;36966;48.064;-0.792;2022-10-15T04:51:20;20.30;68.10
50955;DHT22;36966;48.064;-0.792;2022-10-15T04:53:39;20.30;67.90
50955;DHT22;36966;48.064;-0.792;2022-10-15T04:56:00;20.30;67.90
50955;DHT22;36966;48.064;-0.792;2022-10-15T04:58:20;20.30;67.90
50955;DHT22;36966;48.064;-0.792;2022-10-15T05:00:39;20.30;67.90
50955;DHT22;36966;48.064;-0.792;2022-10-15T05:02:58;20.30;67.80
50955;DHT22;36966;48.064;-0.792;2022-10-15T05:05:17;20.40;67.80
50955;DHT22;36966;48.064;-0.792;2022-10-15T05:07:36;20.40;67.80
50955;DHT22;36966;48.064;-0.792;2022-10-15T05:09:55;20.40;67.80
50955;DHT22;36966;48.064;-0.792;2022-10-15T05:12:15;20.40;67.90
50955;DHT22;36966;48.064;-0.792;2022-10-15T05:14:34;20.40;67.70
50955;DHT22;36966;48.064;-0.792;2022-10-15T05:16:53;20.40;67.60
50955;DHT22;36966;48.064;-0.792;2022-10-15T05:19:13;20.40;67.60
50955;DHT22;36966;48.064;-0.792;2022-10-15T05:21:33;20.40;67.70
50955;DHT22;36966;48.064;-0.792;2022-10-15T05:23:53;20.40;67.70
50955;DHT22;36966;48.064;-0.792;2022-10-15T05:26:15;20.40;67.70
50955;DHT22;36966;48.064;-0.792;2022-10-15T05:28:35;20.40;67.60
50955;DHT22;36966;48.064;-0.792;2022-10-15T05:30:55;20.40;67.60
50955;DHT22;36966;48.064;-0.792;2022-10-15T05:33:14;20.40;67.50
50955;DHT22;36966;48.064;-0.792;2022-10-15T05:35:34;20.40;67.50
50955;DHT22;36966;48.064;-0.792;2022-10-15T05:37:53;20.40;67.50
50955;DHT22;36966;48.064;-0.792;2022-10-15T05:40:12;20.40;67.40
50955;DHT22;36966;48.064;-0.792;2022-10-15T05:42:31;20.40;67.40
50955;DHT22;36966;48.064;-0.792;2022-10-15T05:44:50;20.40;67.30
50955;DHT22;36966;48.064;-0.792;2022-10-15T05:47:09;20.40;67.30
50955;DHT22;36966;48.064;-0.792;2022-10-15T05:49:30;20.50;67.40
50955;DHT22;36966;48.064;-0.792;2022-10-15T05:51:49;20.50;67.40
50955;DHT22;36966;48.064;-0.792;2022-10-15T05:54:09;20.50;67.40
50955;DHT22;36966;48.064;-0.792;2022-10-15T05:56:29;20.40;67.10
50955;DHT22;36966;48.064;-0.792;2022-10-15T05:58:48;20.50;67.20
50955;DHT22;36966;48.064;-0.792;2022-10-15T06:01:10;20.40;67.20
50955;DHT22;36966;48.064;-0.792;2022-10-15T06:03:30;20.50;67.10
50955;DHT22;36966;48.064;-0.792;2022-10-15T06:05:50;20.50;67.10
50955;DHT22;36966;48.064;-0.792;2022-10-15T06:08:09;20.50;67.20
50955;DHT22;36966;48.064;-0.792;2022-10-15T06:10:29;20.50;67.00
50955;DHT22;36966;48.064;-0.792;2022-10-15T06:12:49;20.50;67.10
50955;DHT22;36966;48.064;-0.792;2022-10-15T06:15:09;20.50;66.90
50955;DHT22;36966;48.064;-0.792;2022-10-15T06:17:28;20.50;66.90
50955;DHT22;36966;48.064;-0.792;2022-10-15T06:19:47;20.50;66.90
50955;DHT22;36966;48.064;-0.792;2022-10-15T06:22:06;20.50;66.90
50955;DHT22;36966;48.064;-0.792;2022-10-15T06:24:25;20.50;66.80
50955;DHT22;36966;48.064;-0.792;2022-10-15T06:26:44;20.50;66.80
50955;DHT22;36966;48.064;-0.792;2022-10-15T06:29:04;20.50;66.80
50955;DHT22;36966;48.064;-0.792;2022-10-15T06:31:23;20.50;66.80
50955;DHT22;36966;48.064;-0.792;2022-10-15T06:33:42;20.50;66.80
50955;DHT22;36966;48.064;-0.792;2022-10-15T06:36:03;20.50;66.80
50955;DHT22;36966;48.064;-0.792;2022-10-15T06:38:23;20.50;66.70
50955;DHT22;36966;48.064;-0.792;2022-10-15T06:40:42;20.50;66.70
50955;DHT22;36966;48.064;-0.792;2022-10-15T06:43:03;20.50;66.70
50955;DHT22;36966;48.064;-0.792;2022-10-15T06:45:23;20.50;66.70
50955;DHT22;36966;48.064;-0.792;2022-10-15T06:47:42;20.50;66.60
50955;DHT22;36966;48.064;-0.792;2022-10-15T06:50:01;20.50;66.70
50955;DHT22;36966;48.064;-0.792;2022-10-15T06:52:20;20.50;66.60
50955;DHT22;36966;48.064;-0.792;2022-10-15T06:54:42;20.50;66.50
50955;DHT22;36966;48.064;-0.792;2022-10-15T06:57:01;20.50;66.50
50955;DHT22;36966;48.064;-0.792;2022-10-15T06:59:20;20.50;66.70
50955;DHT22;36966;48.064;-0.792;2022-10-15T07:01:39;20.50;66.30
50955;DHT22;36966;48.064;-0.792;2022-10-15T07:03:58;20.50;66.10
50955;DHT22;36966;48.064;-0.792;2022-10-15T07:06:18;20.60;66.00
50955;DHT22;36966;48.064;-0.792;2022-10-15T07:08:37;20.50;65.90
50955;DHT22;36966;48.064;-0.792;2022-10-15T07:10:56;20.60;66.00
50955;DHT22;36966;48.064;-0.792;2022-10-15T07:13:16;20.60;65.90
50955;DHT22;36966;48.064;-0.792;2022-10-15T07:15:35;20.60;65.80
50955;DHT22;36966;48.064;-0.792;2022-10-15T07:17:55;20.60;65.90
50955;DHT22;36966;48.064;-0.792;2022-10-15T07:20:16;20.60;65.80
50955;DHT22;36966;48.064;-0.792;2022-10-15T07:22:35;20.60;65.80
50955;DHT22;36966;48.064;-0.792;2022-10-15T07:24:54;20.60;65.80
50955;DHT22;36966;48.064;-0.792;2022-10-15T07:27:13;20.60;65.80
50955;DHT22;36966;48.064;-0.792;2022-10-15T07:29:32;20.60;65.70
50955;DHT22;36966;48.064;-0.792;2022-10-15T07:31:51;20.60;65.70
50955;DHT22;36966;48.064;-0.792;2022-10-15T07:34:11;20.60;65.60
50955;DHT22;36966;48.064;-0.792;2022-10-15T07:36:30;20.60;65.50
50955;DHT22;36966;48.064;-0.792;2022-10-15T07:38:49;20.70;65.50
50955;DHT22;36966;48.064;-0.792;2022-10-15T07:41:09;20.70;65.40
50955;DHT22;36966;48.064;-0.792;2022-10-15T07:43:28;20.70;65.40
50955;DHT22;36966;48.064;-0.792;2022-10-15T07:45:48;20.70;65.80
50955;DHT22;36966;48.064;-0.792;2022-10-15T07:48:08;20.70;65.70
50955;DHT22;36966;48.064;-0.792;2022-10-15T07:50:27;20.70;65.60
50955;DHT22;36966;48.064;-0.792;2022-10-15T07:52:46;20.70;65.70
50955;DHT22;36966;48.064;-0.792;2022-10-15T07:55:06;20.70;65.70
50955;DHT22;36966;48.064;-0.792;2022-10-15T07:57:25;20.80;65.50
50955;DHT22;36966;48.064;-0.792;2022-10-15T07:59:44;20.70;65.40
50955;DHT22;36966;48.064;-0.792;2022-10-15T08:02:04;20.70;65.40
50955;DHT22;36966;48.064;-0.792;2022-10-15T08:04:23;20.70;65.40
50955;DHT22;36966;48.064;-0.792;2022-10-15T08:06:42;20.80;65.30
50955;DHT22;36966;48.064;-0.792;2022-10-15T08:09:03;20.70;65.20
50955;DHT22;36966;48.064;-0.792;2022-10-15T08:11:23;20.70;65.20
50955;DHT22;36966;48.064;-0.792;2022-10-15T08:13:43;20.80;65.20
50955;DHT22;36966;48.064;-0.792;2022-10-15T08:16:02;20.80;65.20
50955;DHT22;36966;48.064;-0.792;2022-10-15T08:18:22;20.80;65.20
50955;DHT22;36966;48.064;-0.792;2022-10-15T08:20:42;20.80;65.20
50955;DHT22;36966;48.064;-0.792;2022-10-15T08:23:01;20.80;65.10
50955;DHT22;36966;48.064;-0.792;2022-10-15T08:25:21;20.80;65.10
50955;DHT22;36966;48.064;-0.792;2022-10-15T08:27:40;20.80;65.10
50955;DHT22;36966;48.064;-0.792;2022-10-15T08:29:59;20.80;65.10
50955;DHT22;36966;48.064;-0.792;2022-10-15T08:32:18;20.80;65.00
50955;DHT22;36966;48.064;-0.792;2022-10-15T08:34:37;20.80;65.10
50955;DHT22;36966;48.064;-0.792;2022-10-15T08:36:57;20.80;65.00
50955;DHT22;36966;48.064;-0.792;2022-10-15T08:39:16;20.90;65.10
50955;DHT22;36966;48.064;-0.792;2022-10-15T08:43:58;20.90;65.00
50955;DHT22;36966;48.064;-0.792;2022-10-15T08:46:23;21.00;65.00
50955;DHT22;36966;48.064;-0.792;2022-10-15T08:48:46;21.00;64.90
50955;DHT22;36966;48.064;-0.792;2022-10-15T08:51:13;21.00;64.70
50955;DHT22;36966;48.064;-0.792;2022-10-15T08:53:43;21.10;64.60
50955;DHT22;36966;48.064;-0.792;2022-10-15T08:56:14;21.10;64.60
50955;DHT22;36966;48.064;-0.792;2022-10-15T09:01:30;21.20;64.60
50955;DHT22;36966;48.064;-0.792;2022-10-15T09:06:38;21.20;64.50
50955;DHT22;36966;48.064;-0.792;2022-10-15T09:11:41;21.40;64.20
50955;DHT22;36966;48.064;-0.792;2022-10-15T09:14:04;21.40;64.00
50955;DHT22;36966;48.064;-0.792;2022-10-15T09:16:29;21.60;63.80
50955;DHT22;36966;48.064;-0.792;2022-10-15T09:18:51;21.70;63.70
50955;DHT22;36966;48.064;-0.792;2022-10-15T09:21:12;21.70;63.40
50955;DHT22;36966;48.064;-0.792;2022-10-15T09:23:32;21.80;63.30
50955;DHT22;36966;48.064;-0.792;2022-10-15T09:31:06;21.90;62.80
50955;DHT22;36966;48.064;-0.792;2022-10-15T09:33:37;21.90;62.70
50955;DHT22;36966;48.064;-0.792;2022-10-15T09:38:46;22.00;62.50
50955;DHT22;36966;48.064;-0.792;2022-10-15T09:43:58;22.00;62.40
50955;DHT22;36966;48.064;-0.792;2022-10-15T09:46:19;22.00;62.30
50955;DHT22;36966;48.064;-0.792;2022-10-15T09:54:09;22.00;62.10
50955;DHT22;36966;48.064;-0.792;2022-10-15T09:56:37;22.00;62.10
50955;DHT22;36966;48.064;-0.792;2022-10-15T09:58:58;22.00;62.10
50955;DHT22;36966;48.064;-0.792;2022-10-15T10:01:23;21.90;62.10
50955;DHT22;36966;48.064;-0.792;2022-10-15T10:03:42;22.00;62.10
50955;DHT22;36966;48.064;-0.792;2022-10-15T10:06:12;22.00;62.10
50955;DHT22;36966;48.064;-0.792;2022-10-15T10:08:49;22.00;62.10
50955;DHT22;36966;48.064;-0.792;2022-10-15T10:11:10;22.00;61.90
50955;DHT22;36966;48.064;-0.792;2022-10-15T10:13:45;22.00;61.90
50955;DHT22;36966;48.064;-0.792;2022-10-15T10:16:10;22.00;61.80
50955;DHT22;36966;48.064;-0.792;2022-10-15T10:18:29;22.10;61.80
50955;DHT22;36966;48.064;-0.792;2022-10-15T10:23:23;22.10;61.60
50955;DHT22;36966;48.064;-0.792;2022-10-15T10:25:43;22.10;61.40
50955;DHT22;36966;48.064;-0.792;2022-10-15T10:28:14;22.10;61.40
50955;DHT22;36966;48.064;-0.792;2022-10-15T10:33:23;22.10;61.30
50955;DHT22;36966;48.064;-0.792;2022-10-15T10:35:45;22.20;61.20
50955;DHT22;36966;48.064;-0.792;2022-10-15T10:38:05;22.10;61.20
50955;DHT22;36966;48.064;-0.792;2022-10-15T10:40:31;22.10;61.20
50955;DHT22;36966;48.064;-0.792;2022-10-15T10:43:32;22.00;61.20
50955;DHT22;36966;48.064;-0.792;2022-10-15T10:45:58;22.00;61.30
50955;DHT22;36966;48.064;-0.792;2022-10-15T10:48:20;22.00;61.30
50955;DHT22;36966;48.064;-0.792;2022-10-15T10:50:40;22.00;61.30
50955;DHT22;36966;48.064;-0.792;2022-10-15T10:55:38;21.90;61.40
50955;DHT22;36966;48.064;-0.792;2022-10-15T10:57:58;21.90;61.30
50955;DHT22;36966;48.064;-0.792;2022-10-15T11:00:43;21.90;61.30
50955;DHT22;36966;48.064;-0.792;2022-10-15T11:03:03;21.80;61.30
50955;DHT22;36966;48.064;-0.792;2022-10-15T11:05:28;21.80;61.30
50955;DHT22;36966;48.064;-0.792;2022-10-15T11:11:19;21.80;61.40
50955;DHT22;36966;48.064;-0.792;2022-10-15T11:15:58;21.70;61.30
50955;DHT22;36966;48.064;-0.792;2022-10-15T11:18:30;21.70;61.30
50955;DHT22;36966;48.064;-0.792;2022-10-15T11:23:23;21.70;61.40
50955;DHT22;36966;48.064;-0.792;2022-10-15T11:28:55;21.70;61.30
50955;DHT22;36966;48.064;-0.792;2022-10-15T11:36:55;21.70;61.30
50955;DHT22;36966;48.064;-0.792;2022-10-15T11:42:12;21.60;61.20
50955;DHT22;36966;48.064;-0.792;2022-10-15T11:57:36;21.50;61.10
50955;DHT22;36966;48.064;-0.792;2022-10-15T12:00:11;21.50;61.20
50955;DHT22;36966;48.064;-0.792;2022-10-15T12:02:35;21.50;61.10
50955;DHT22;36966;48.064;-0.792;2022-10-15T12:04:59;21.50;61.20
50955;DHT22;36966;48.064;-0.792;2022-10-15T12:07:33;21.50;61.20
50955;DHT22;36966;48.064;-0.792;2022-10-15T12:18:24;21.40;61.20
50955;DHT22;36966;48.064;-0.792;2022-10-15T12:20:45;21.40;61.20
50955;DHT22;36966;48.064;-0.792;2022-10-15T12:23:25;21.40;61.20
50955;DHT22;36966;48.064;-0.792;2022-10-15T12:25:45;21.40;61.30
50955;DHT22;36966;48.064;-0.792;2022-10-15T12:28:15;21.40;61.20
50955;DHT22;36966;48.064;-0.792;2022-10-15T12:30:36;21.40;61.20
50955;DHT22;36966;48.064;-0.792;2022-10-15T12:32:55;21.40;61.20
50955;DHT22;36966;48.064;-0.792;2022-10-15T12:37:35;21.40;61.30
50955;DHT22;36966;48.064;-0.792;2022-10-15T12:39:57;21.40;61.30
50955;DHT22;36966;48.064;-0.792;2022-10-15T12:42:37;21.40;61.30
50955;DHT22;36966;48.064;-0.792;2022-10-15T12:45:00;21.40;61.30
50955;DHT22;36966;48.064;-0.792;2022-10-15T12:47:48;21.40;61.30
50955;DHT22;36966;48.064;-0.792;2022-10-15T12:50:17;21.30;61.40
50955;DHT22;36966;48.064;-0.792;2022-10-15T12:55:27;21.40;61.50
50955;DHT22;36966;48.064;-0.792;2022-10-15T13:00:41;21.30;61.60
50955;DHT22;36966;48.064;-0.792;2022-10-15T13:03:31;21.30;61.50
50955;DHT22;36966;48.064;-0.792;2022-10-15T13:05:51;21.30;61.60
50955;DHT22;36966;48.064;-0.792;2022-10-15T13:08:24;21.30;61.70
50955;DHT22;36966;48.064;-0.792;2022-10-15T13:10:56;21.30;61.70
50955;DHT22;36966;48.064;-0.792;2022-10-15T13:13:28;21.30;61.70
50955;DHT22;36966;48.064;-0.792;2022-10-15T13:15:54;21.30;61.70
50955;DHT22;36966;48.064;-0.792;2022-10-15T13:18:15;21.30;61.70
50955;DHT22;36966;48.064;-0.792;2022-10-15T13:20:39;21.30;61.70
50955;DHT22;36966;48.064;-0.792;2022-10-15T13:23:20;21.30;61.70
50955;DHT22;36966;48.064;-0.792;2022-10-15T13:25:40;21.40;61.80
50955;DHT22;36966;48.064;-0.792;2022-10-15T13:27:59;21.40;61.90
50955;DHT22;36966;48.064;-0.792;2022-10-15T13:30:19;21.40;62.40
50955;DHT22;36966;48.064;-0.792;2022-10-15T13:32:50;21.50;62.60
50955;DHT22;36966;48.064;-0.792;2022-10-15T13:35:15;21.50;62.60
50955;DHT22;36966;48.064;-0.792;2022-10-15T13:37:37;21.50;62.60
50955;DHT22;36966;48.064;-0.792;2022-10-15T13:39:59;21.50;62.50
50955;DHT22;36966;48.064;-0.792;2022-10-15T13:42:23;21.50;62.60
50955;DHT22;36966;48.064;-0.792;2022-10-15T13:44:54;21.60;62.50
50955;DHT22;36966;48.064;-0.792;2022-10-15T13:47:35;21.50;62.40
50955;DHT22;36966;48.064;-0.792;2022-10-15T13:50:18;21.60;62.40
50955;DHT22;36966;48.064;-0.792;2022-10-15T13:52:51;21.60;62.30
50955;DHT22;36966;48.064;-0.792;2022-10-15T13:55:18;21.50;62.20
50955;DHT22;36966;48.064;-0.792;2022-10-15T13:57:43;21.60;62.30
50955;DHT22;36966;48.064;-0.792;2022-10-15T14:00:03;21.60;62.30
50955;DHT22;36966;48.064;-0.792;2022-10-15T14:02:23;21.60;62.30
50955;DHT22;36966;48.064;-0.792;2022-10-15T14:04:43;21.60;62.30
50955;DHT22;36966;48.064;-0.792;2022-10-15T14:07:21;21.60;62.20
50955;DHT22;36966;48.064;-0.792;2022-10-15T14:09:40;21.70;62.10
50955;DHT22;36966;48.064;-0.792;2022-10-15T14:12:00;21.70;62.10
50955;DHT22;36966;48.064;-0.792;2022-10-15T14:14:28;21.70;62.00
50955;DHT22;36966;48.064;-0.792;2022-10-15T14:16:48;21.70;62.00
50955;DHT22;36966;48.064;-0.792;2022-10-15T14:19:17;21.70;62.00
50955;DHT22;36966;48.064;-0.792;2022-10-15T14:21:42;21.70;61.90
50955;DHT22;36966;48.064;-0.792;2022-10-15T14:26:51;21.70;61.80
50955;DHT22;36966;48.064;-0.792;2022-10-15T14:29:28;21.70;61.70
50955;DHT22;36966;48.064;-0.792;2022-10-15T14:31:52;21.70;61.60
50955;DHT22;36966;48.064;-0.792;2022-10-15T14:36:52;21.70;61.30
50955;DHT22;36966;48.064;-0.792;2022-10-15T14:39:27;21.70;61.20
50955;DHT22;36966;48.064;-0.792;2022-10-15T14:42:01;21.70;60.90
50955;DHT22;36966;48.064;-0.792;2022-10-15T14:44:21;21.70;60.30
50955;DHT22;36966;48.064;-0.792;2022-10-15T14:46:48;21.60;59.90
50955;DHT22;36966;48.064;-0.792;2022-10-15T14:49:21;21.50;60.30
50955;DHT22;36966;48.064;-0.792;2022-10-15T14:51:40;21.60;59.80
50955;DHT22;36966;48.064;-0.792;2022-10-15T14:54:00;21.50;59.70
50955;DHT22;36966;48.064;-0.792;2022-10-15T14:56:22;21.60;59.80
50955;DHT22;36966;48.064;-0.792;2022-10-15T14:58:51;21.50;59.60
50955;DHT22;36966;48.064;-0.792;2022-10-15T15:01:13;21.50;59.50
50955;DHT22;36966;48.064;-0.792;2022-10-15T15:03:43;21.50;59.60
50955;DHT22;36966;48.064;-0.792;2022-10-15T15:06:03;21.50;59.60
50955;DHT22;36966;48.064;-0.792;2022-10-15T15:08:24;21.50;60.00
50955;DHT22;36966;48.064;-0.792;2022-10-15T15:10:44;21.50;60.20
50955;DHT22;36966;48.064;-0.792;2022-10-15T15:13:04;21.50;60.20
50955;DHT22;36966;48.064;-0.792;2022-10-15T15:15:24;21.40;60.40
50955;DHT22;36966;48.064;-0.792;2022-10-15T15:17:47;21.40;60.30
50955;DHT22;36966;48.064;-0.792;2022-10-15T15:20:08;21.40;60.30
50955;DHT22;36966;48.064;-0.792;2022-10-15T15:22:29;21.40;60.30
50955;DHT22;36966;48.064;-0.792;2022-10-15T15:24:49;21.40;60.20
50955;DHT22;36966;48.064;-0.792;2022-10-15T15:27:21;21.40;60.40
50955;DHT22;36966;48.064;-0.792;2022-10-15T15:29:41;21.40;60.30
50955;DHT22;36966;48.064;-0.792;2022-10-15T15:32:01;21.40;60.30
50955;DHT22;36966;48.064;-0.792;2022-10-15T15:34:20;21.40;60.10
50955;DHT22;36966;48.064;-0.792;2022-10-15T15:36:42;21.40;59.70
50955;DHT22;36966;48.064;-0.792;2022-10-15T15:39:01;21.40;60.30
50955;DHT22;36966;48.064;-0.792;2022-10-15T15:41:22;21.30;60.10
50955;DHT22;36966;48.064;-0.792;2022-10-15T15:43:43;21.30;60.10
50955;DHT22;36966;48.064;-0.792;2022-10-15T15:46:04;21.30;60.00
50955;DHT22;36966;48.064;-0.792;2022-10-15T15:48:24;21.30;60.00
50955;DHT22;36966;48.064;-0.792;2022-10-15T15:50:43;21.30;60.10
50955;DHT22;36966;48.064;-0.792;2022-10-15T15:53:02;21.30;59.70
50955;DHT22;36966;48.064;-0.792;2022-10-15T15:55:22;21.30;59.90
50955;DHT22;36966;48.064;-0.792;2022-10-15T15:57:42;21.30;59.70
50955;DHT22;36966;48.064;-0.792;2022-10-15T16:00:07;21.30;59.40
50955;DHT22;36966;48.064;-0.792;2022-10-15T16:02:27;21.30;59.60
50955;DHT22;36966;48.064;-0.792;2022-10-15T16:04:46;21.30;59.70
50955;DHT22;36966;48.064;-0.792;2022-10-15T16:07:05;21.30;59.70
50955;DHT22;36966;48.064;-0.792;2022-10-15T16:09:26;21.30;59.60
50955;DHT22;36966;48.064;-0.792;2022-10-15T16:11:45;21.30;59.60
50955;DHT22;36966;48.064;-0.792;2022-10-15T16:14:05;21.20;59.70
50955;DHT22;36966;48.064;-0.792;2022-10-15T16:16:25;21.20;59.50
50955;DHT22;36966;48.064;-0.792;2022-10-15T16:18:44;21.20;59.50
50955;DHT22;36966;48.064;-0.792;2022-10-15T16:21:04;21.20;59.50
50955;DHT22;36966;48.064;-0.792;2022-10-15T16:23:23;21.20;59.60
50955;DHT22;36966;48.064;-0.792;2022-10-15T16:25:42;21.20;59.50
50955;DHT22;36966;48.064;-0.792;2022-10-15T16:28:02;21.20;59.10
50955;DHT22;36966;48.064;-0.792;2022-10-15T16:30:22;21.20;59.10
50955;DHT22;36966;48.064;-0.792;2022-10-15T16:32:42;21.20;59.00
50955;DHT22;36966;48.064;-0.792;2022-10-15T16:35:01;21.20;59.10
50955;DHT22;36966;48.064;-0.792;2022-10-15T16:37:21;21.20;58.90
50955;DHT22;36966;48.064;-0.792;2022-10-15T16:39:40;21.20;58.80